Time;durP1;ratioP1;P1;durP2;ratioP2;P2;SDS_P1;SDS_P2;PMS_P1;PMS_P2;Temp;Humidity;BMP_temperature;BMP_pressure;BME280_temperature;BME280_humidity;BME280_pressure;Samples;Min_cycle;Max_cycle;Signal;HPM_P1;HPM_P2
2022/10/10 00:01:52;;;;;;;6.13;2.30;;;;;;;8.76;87.56;101936.50;4988913;28;20589;-70
2022/10/10 00:04:17;;;;;;;4.60;1.80;;;;;;;8.80;86.77;101936.69;4989096;28;20199;-70
2022/10/10 00:06:42;;;;;;;9.37;2.23;;;;;;;8.74;87.38;101944.09;4987675;28;20199;-70
2022/10/10 00:09:08;;;;;;;5.10;1.90;;;;;;;8.74;87.16;101938.09;5004158;28;20219;-69
2022/10/10 00:11:34;;;;;;;10.43;1.80;;;;;;;8.70;87.89;101937.09;4988135;28;20211;-71
2022/10/10 00:14:00;;;;;;;6.23;1.57;;;;;;;8.71;87.29;101936.28;4990106;28;20187;-71
2022/10/10 00:16:26;;;;;;;6.63;2.20;;;;;;;8.72;86.52;101930.41;4988025;28;20657;-70
2022/10/10 00:18:52;;;;;;;4.20;2.20;;;;;;;8.69;87.57;101934.47;4988752;28;20247;-71
2022/10/10 00:21:18;;;;;;;7.67;1.97;;;;;;;8.63;87.45;101929.09;4989843;28;20273;-70
2022/10/10 00:23:43;;;;;;;7.13;2.20;;;;;;;8.60;87.12;101924.72;4983944;28;20187;-71
2022/10/10 00:26:09;;;;;;;4.30;1.63;;;;;;;8.58;87.69;101926.34;4987381;28;20686;-71
2022/10/10 00:28:37;;;;;;;5.80;2.20;;;;;;;8.60;87.92;101931.50;5004849;28;20280;-70
2022/10/10 00:31:04;;;;;;;5.63;1.60;;;;;;;8.53;86.96;101927.81;5002996;28;20250;-70
2022/10/10 00:33:30;;;;;;;5.47;2.20;;;;;;;8.42;87.20;101921.34;4987772;28;20191;-70
2022/10/10 00:35:55;;;;;;;5.57;1.70;;;;;;;8.35;86.79;101927.00;4990798;28;20665;-70
2022/10/10 00:38:20;;;;;;;5.20;1.93;;;;;;;8.31;87.61;101922.56;4986612;28;20677;-70
2022/10/10 00:40:53;;;;;;;3.87;1.73;;;;;;;8.27;88.74;101918.13;4988428;28;20290;-70
2022/10/10 00:43:19;;;;;;;12.37;2.37;;;;;;;8.21;88.21;101925.47;4974304;28;20196;-69
2022/10/10 00:45:46;;;;;;;2.93;1.73;;;;;;;8.12;89.02;101906.31;4981580;28;20243;-70
2022/10/10 00:48:19;;;;;;;7.13;2.40;;;;;;;8.21;89.36;101904.19;4982965;28;20199;-70
2022/10/10 00:50:53;;;;;;;9.00;2.17;;;;;;;8.20;89.08;101902.44;4981435;28;20219;-69
2022/10/10 00:53:22;;;;;;;5.17;1.77;;;;;;;8.11;88.68;101891.81;4985099;28;20226;-70
2022/10/10 00:55:47;;;;;;;8.93;2.40;;;;;;;8.11;88.96;101889.25;4983151;28;20543;-70
2022/10/10 00:58:15;;;;;;;8.03;2.07;;;;;;;8.07;89.68;101887.38;4986945;28;20323;-71
2022/10/10 01:00:40;;;;;;;9.50;2.17;;;;;;;8.03;89.31;101881.25;4981903;28;20207;-70
2022/10/10 01:03:06;;;;;;;10.50;2.47;;;;;;;8.02;89.64;101882.03;4985437;28;20190;-70
2022/10/10 01:05:32;;;;;;;6.43;2.30;;;;;;;8.03;89.49;101877.81;4983863;28;20543;-70
2022/10/10 01:07:59;;;;;;;6.23;2.00;;;;;;;8.01;90.08;101872.63;4985839;28;20195;-70
2022/10/10 01:10:25;;;;;;;4.20;1.77;;;;;;;8.01;90.51;101871.78;4984001;28;20242;-71
2022/10/10 01:13:09;;;;;;;8.17;2.03;;;;;;;8.01;89.82;101875.19;4985226;28;20196;-71
2022/10/10 01:15:41;;;;;;;5.20;2.07;;;;;;;8.00;89.84;101876.00;4984744;28;20188;-70
2022/10/10 01:18:36;;;;;;;6.03;2.50;;;;;;;8.03;90.55;101872.72;4999326;28;20653;-69
2022/10/10 01:21:10;;;;;;;3.13;1.87;;;;;;;8.06;89.54;101871.19;4989081;28;20305;-70
2022/10/10 01:23:44;;;;;;;5.73;1.97;;;;;;;8.03;89.90;101865.06;4982242;28;20660;-70
2022/10/10 01:26:48;;;;;;;2.93;2.10;;;;;;;8.03;90.19;101867.63;4985816;28;20175;-69
2022/10/10 01:29:37;;;;;;;4.50;2.13;;;;;;;8.02;90.87;101865.88;4988065;28;20238;-70
2022/10/10 01:32:10;;;;;;;4.43;2.00;;;;;;;7.99;90.67;101863.19;4982785;28;20239;-70
2022/10/10 01:34:45;;;;;;;7.50;2.43;;;;;;;7.96;90.34;101858.81;4986530;28;20183;-70
2022/10/10 01:37:20;;;;;;;7.20;2.17;;;;;;;7.91;90.51;101850.09;4985356;28;20199;-71
2022/10/10 01:40:13;;;;;;;5.43;2.10;;;;;;;7.81;90.53;101814.78;4984090;28;20215;-69
2022/10/10 01:43:08;;;;;;;4.00;2.13;;;;;;;7.82;90.68;101802.88;4969148;28;20200;-70
2022/10/10 01:45:33;;;;;;;4.83;2.23;;;;;;;7.75;90.85;101811.06;4993690;28;20199;-70
2022/10/10 01:48:05;;;;;;;5.43;2.27;;;;;;;7.77;91.15;101806.91;4988383;28;20194;-70
2022/10/10 01:50:44;;;;;;;4.60;2.30;;;;;;;7.70;91.15;101800.66;4986970;28;20603;-70
2022/10/10 01:53:18;;;;;;;9.67;2.00;;;;;;;7.74;91.26;101796.59;4989867;28;20187;-70
2022/10/10 01:56:07;;;;;;;5.37;1.97;;;;;;;7.71;90.58;101797.31;4990018;28;20199;-71
2022/10/10 01:58:57;;;;;;;4.83;2.10;;;;;;;7.73;90.47;101789.72;4987650;28;20186;-71
2022/10/10 02:01:43;;;;;;;4.40;2.37;;;;;;;7.72;91.30;101785.44;4988568;28;20887;-70
2022/10/10 02:04:37;;;;;;;8.70;2.50;;;;;;;7.70;91.50;101782.81;4985105;28;20191;-71
2022/10/10 02:07:12;;;;;;;7.33;2.83;;;;;;;7.66;91.14;101773.28;4988928;28;20183;-70
2022/10/10 02:09:41;;;;;;;4.07;2.10;;;;;;;7.65;91.61;101768.13;4989937;28;20255;-70
2022/10/10 02:12:09;;;;;;;7.60;2.80;;;;;;;7.64;91.61;101779.13;4990053;28;20242;-70
2022/10/10 02:14:58;;;;;;;8.53;3.13;;;;;;;7.63;91.39;101775.69;4987066;28;20557;-71
2022/10/10 02:17:25;;;;;;;9.83;2.90;;;;;;;7.61;91.87;101777.28;4991396;28;20271;-68
2022/10/10 02:19:53;;;;;;;5.50;2.20;;;;;;;7.60;91.20;101777.25;4987325;28;20204;-70
2022/10/10 02:22:21;;;;;;;10.23;2.40;;;;;;;7.54;91.06;101774.38;5002371;28;20302;-70
2022/10/10 02:24:47;;;;;;;6.57;2.63;;;;;;;7.53;92.11;101775.19;4981899;28;20192;-70
2022/10/10 02:27:22;;;;;;;7.50;2.53;;;;;;;7.48;91.46;101766.47;4988348;28;20199;-70
2022/10/10 02:29:51;;;;;;;6.17;2.40;;;;;;;7.44;91.35;101760.38;4985704;28;20553;-71
2022/10/10 02:32:27;;;;;;;4.97;2.10;;;;;;;7.40;91.79;101755.03;4984869;28;20250;-69
2022/10/10 02:34:56;;;;;;;6.23;2.53;;;;;;;7.40;92.44;101758.47;4984363;28;20196;-69
2022/10/10 02:37:24;;;;;;;5.17;2.07;;;;;;;7.41;92.17;101756.81;4986338;28;20626;-70
2022/10/10 02:39:55;;;;;;;6.53;2.07;;;;;;;7.39;92.62;101761.81;4987749;28;20350;-70
2022/10/10 02:42:22;;;;;;;6.53;2.37;;;;;;;7.41;92.34;101762.75;4987757;28;20216;-69
2022/10/10 02:44:49;;;;;;;5.93;2.53;;;;;;;7.39;92.03;101755.84;4986827;28;20241;-70
2022/10/10 02:47:15;;;;;;;7.50;2.60;;;;;;;7.35;91.66;101752.28;4990362;28;20538;-71
2022/10/10 02:49:40;;;;;;;6.07;2.27;;;;;;;7.31;92.35;101750.41;4986660;28;20276;-70
2022/10/10 02:52:06;;;;;;;11.13;2.80;;;;;;;7.29;92.20;101746.91;4991610;28;20331;-70
2022/10/10 02:54:32;;;;;;;4.47;2.83;;;;;;;7.32;92.82;101746.19;4984123;28;20327;-70
2022/10/10 02:56:57;;;;;;;7.27;2.43;;;;;;;7.26;92.87;101739.13;4989679;28;20272;-71
2022/10/10 02:59:23;;;;;;;5.60;2.37;;;;;;;7.20;92.48;101737.97;4989920;28;20580;-71
2022/10/10 03:01:49;;;;;;;6.67;2.17;;;;;;;7.18;93.20;101737.88;4988474;28;20238;-70
2022/10/10 03:04:15;;;;;;;5.53;2.60;;;;;;;7.13;93.26;101729.16;4986107;28;20187;-71
2022/10/10 03:06:41;;;;;;;9.03;2.67;;;;;;;7.11;92.62;101730.78;4987637;28;20951;-70
2022/10/10 03:09:06;;;;;;;9.33;2.63;;;;;;;7.06;93.76;101728.81;4991083;28;20191;-70
2022/10/10 03:11:32;;;;;;;8.97;2.80;;;;;;;7.09;93.47;101719.63;4990722;28;20223;-70
2022/10/10 03:13:57;;;;;;;8.53;3.10;;;;;;;7.04;93.44;101722.78;4985834;28;20199;-70
2022/10/10 03:16:23;;;;;;;8.60;2.37;;;;;;;7.03;93.16;101718.47;4983459;28;20196;-71
2022/10/10 03:18:48;;;;;;;5.30;2.30;;;;;;;7.03;92.61;101716.81;4986726;28;20227;-70
2022/10/10 03:21:13;;;;;;;7.60;2.70;;;;;;;6.98;92.79;101715.72;4991310;28;20579;-70
2022/10/10 03:23:39;;;;;;;3.93;2.20;;;;;;;6.96;93.00;101712.19;4990827;28;20230;-70
2022/10/10 03:26:05;;;;;;;4.83;2.30;;;;;;;6.97;93.15;101708.88;4984993;28;20283;-70
2022/10/10 03:28:31;;;;;;;6.97;2.80;;;;;;;6.93;93.33;101703.56;4986093;28;20258;-70
2022/10/10 03:30:56;;;;;;;9.30;2.90;;;;;;;6.85;93.23;101705.75;4985080;28;20682;-69
2022/10/10 03:33:22;;;;;;;9.27;3.03;;;;;;;6.83;93.78;101712.44;4987062;28;20241;-70
2022/10/10 03:35:47;;;;;;;11.53;2.90;;;;;;;6.83;93.65;101701.38;4991531;28;20278;-71
2022/10/10 03:38:13;;;;;;;5.73;2.40;;;;;;;6.78;93.86;101702.84;4985010;28;20665;-70
2022/10/10 03:40:41;;;;;;;5.67;2.83;;;;;;;6.73;93.50;101701.75;4987892;28;20220;-70
2022/10/10 03:43:07;;;;;;;9.07;3.57;;;;;;;6.72;93.69;101700.84;4990165;28;20242;-71
2022/10/10 03:45:32;;;;;;;5.57;2.53;;;;;;;6.76;93.33;101699.31;4991474;28;20196;-70
2022/10/10 03:47:58;;;;;;;5.80;2.63;;;;;;;6.69;93.19;101693.09;4985543;28;20249;-70
2022/10/10 03:50:23;;;;;;;6.83;2.60;;;;;;;6.67;93.77;101692.13;4985706;28;20571;-69
2022/10/10 03:52:49;;;;;;;5.63;2.87;;;;;;;6.69;94.02;101697.31;4986419;28;20191;-70
2022/10/10 03:55:14;;;;;;;5.93;2.83;;;;;;;6.73;94.04;101694.97;4988762;28;20198;-71
2022/10/10 03:57:40;;;;;;;5.37;2.53;;;;;;;6.71;93.96;101691.50;4985117;28;20276;-70
2022/10/10 04:00:06;;;;;;;5.63;2.87;;;;;;;6.68;93.89;101686.25;4988887;28;20219;-70
2022/10/10 04:02:31;;;;;;;5.40;2.90;;;;;;;6.62;94.57;101688.50;4981058;28;20255;-71
2022/10/10 04:04:57;;;;;;;8.00;2.90;;;;;;;6.59;94.56;101677.31;4997345;28;20227;-70
2022/10/10 04:07:22;;;;;;;10.03;3.20;;;;;;;6.63;94.43;101674.13;4982638;28;20199;-68
2022/10/10 04:09:47;;;;;;;8.87;2.87;;;;;;;6.62;94.36;101670.69;4984431;28;20188;-71
2022/10/10 04:12:13;;;;;;;6.13;3.00;;;;;;;6.62;94.21;101674.88;4999459;28;20225;-70
2022/10/10 04:14:38;;;;;;;9.57;3.10;;;;;;;6.61;94.64;101666.41;4987408;28;20713;-70
2022/10/10 04:17:04;;;;;;;12.97;2.97;;;;;;;6.57;94.70;101659.41;5001974;28;20954;-70
2022/10/10 04:19:29;;;;;;;4.90;2.60;;;;;;;6.55;94.22;101653.41;5002380;28;20208;-70
2022/10/10 04:21:54;;;;;;;8.23;4.00;;;;;;;6.53;94.78;101652.44;4984235;28;20216;-70
2022/10/10 04:24:20;;;;;;;7.23;3.27;;;;;;;6.47;94.45;101651.25;4989275;28;20210;-70
2022/10/10 04:26:45;;;;;;;9.67;3.20;;;;;;;6.44;94.44;101648.59;4983141;28;20613;-69
2022/10/10 04:29:11;;;;;;;5.90;2.73;;;;;;;6.46;95.02;101649.53;4988371;28;20199;-70
2022/10/10 04:31:36;;;;;;;6.17;2.83;;;;;;;6.45;94.52;101647.78;4984114;28;20294;-70
2022/10/10 04:34:01;;;;;;;7.20;2.87;;;;;;;6.42;94.30;101651.06;4988216;28;20215;-70
2022/10/10 04:36:27;;;;;;;9.60;3.00;;;;;;;6.40;94.41;101649.25;4989413;28;20196;-70
2022/10/10 04:38:52;;;;;;;5.93;2.63;;;;;;;6.37;94.66;101646.53;4983681;28;20247;-70
2022/10/10 04:41:18;;;;;;;5.43;3.13;;;;;;;6.41;94.63;101650.97;4987969;28;20697;-70
2022/10/10 04:43:43;;;;;;;5.57;3.00;;;;;;;6.36;94.52;101650.72;4983881;28;20200;-70
2022/10/10 04:46:08;;;;;;;5.47;2.93;;;;;;;6.37;94.82;101659.25;4989649;28;20191;-70
2022/10/10 04:48:35;;;;;;;5.33;3.10;;;;;;;6.36;94.62;101644.78;4987689;28;20188;-70
2022/10/10 04:51:01;;;;;;;6.53;3.23;;;;;;;6.32;94.69;101645.44;4990584;28;20735;-70
2022/10/10 04:53:27;;;;;;;10.17;3.57;;;;;;;6.28;94.94;101638.44;4988789;28;20199;-71
2022/10/10 04:55:52;;;;;;;5.63;2.87;;;;;;;6.24;94.98;101636.56;4987669;28;20247;-70
2022/10/10 04:58:18;;;;;;;8.50;3.13;;;;;;;6.28;95.19;101633.38;4990297;28;20192;-70
2022/10/10 05:00:44;;;;;;;6.00;3.23;;;;;;;6.27;95.10;101626.53;4989983;28;20628;-70
2022/10/10 05:03:11;;;;;;;6.33;3.00;;;;;;;6.23;95.06;101630.63;4990749;28;20194;-69
2022/10/10 05:05:37;;;;;;;6.67;3.37;;;;;;;6.23;95.31;101632.28;4989583;28;20551;-70
2022/10/10 05:08:03;;;;;;;6.80;3.03;;;;;;;6.23;95.20;101630.63;4978012;28;21033;-70
2022/10/10 05:10:29;;;;;;;8.43;3.57;;;;;;;6.17;94.74;101619.28;4978611;28;20183;-70
2022/10/10 05:12:54;;;;;;;5.43;3.20;;;;;;;6.12;95.17;101616.47;4986536;28;20206;-71
2022/10/10 05:15:20;;;;;;;8.23;3.03;;;;;;;6.09;94.45;101612.94;4986721;28;20211;-71
2022/10/10 05:17:46;;;;;;;8.17;3.20;;;;;;;6.07;94.28;101612.84;4990809;28;20207;-71
2022/10/10 05:20:11;;;;;;;8.37;3.37;;;;;;;6.07;94.91;101612.84;4986185;28;20204;-71
2022/10/10 05:22:37;;;;;;;8.40;3.63;;;;;;;6.09;95.33;101598.56;4985286;28;20220;-70
2022/10/10 05:25:03;;;;;;;5.43;3.37;;;;;;;6.08;95.21;101604.41;4988716;28;20187;-69
2022/10/10 05:27:28;;;;;;;6.87;3.70;;;;;;;6.07;95.22;101599.25;4987508;28;20214;-70
2022/10/10 05:29:56;;;;;;;9.07;3.70;;;;;;;6.01;95.07;101602.38;4983644;28;20188;-71
2022/10/10 05:32:22;;;;;;;6.90;3.30;;;;;;;5.99;95.66;101601.41;4980976;28;20218;-71
2022/10/10 05:34:48;;;;;;;6.63;3.10;;;;;;;5.98;95.06;101596.28;4979192;28;20203;-70
2022/10/10 05:37:14;;;;;;;9.67;3.73;;;;;;;5.97;95.15;101604.69;5001743;28;20603;-72
2022/10/10 05:39:39;;;;;;;6.57;3.43;;;;;;;5.92;94.84;101596.84;4983170;28;20211;-70
2022/10/10 05:42:05;;;;;;;5.37;3.07;;;;;;;5.90;95.19;101593.34;4985903;28;20222;-71
2022/10/10 05:44:31;;;;;;;4.90;3.60;;;;;;;5.96;94.94;101595.31;4983854;28;20238;-70
2022/10/10 05:46:56;;;;;;;6.70;3.30;;;;;;;5.90;94.77;101595.88;4983246;28;20198;-70
2022/10/10 05:49:22;;;;;;;7.93;3.63;;;;;;;5.93;94.76;101596.03;4988974;28;20608;-70
2022/10/10 05:51:47;;;;;;;8.17;3.63;;;;;;;5.86;95.31;101598.22;4984676;28;20760;-69
2022/10/10 05:54:13;;;;;;;8.17;4.17;;;;;;;5.86;94.95;101588.94;4985138;28;20242;-69
2022/10/10 05:56:39;;;;;;;6.83;3.40;;;;;;;5.85;95.30;101592.25;4981785;28;20187;-70
2022/10/10 05:59:04;;;;;;;10.70;3.60;;;;;;;5.87;94.79;101585.59;4979737;28;20208;-71
2022/10/10 06:01:29;;;;;;;8.63;3.63;;;;;;;5.87;94.94;101594.88;4986487;28;20204;-70
2022/10/10 06:03:55;;;;;;;9.33;3.90;;;;;;;5.90;95.39;101595.88;4982211;28;20579;-70
2022/10/10 06:06:22;;;;;;;10.63;3.73;;;;;;;5.93;95.25;101588.41;4978674;28;20203;-70
2022/10/10 06:08:48;;;;;;;6.80;3.57;;;;;;;5.88;95.09;101584.78;4982294;28;20214;-70
2022/10/10 06:11:16;;;;;;;7.53;3.80;;;;;;;5.88;95.09;101584.78;4987977;28;20854;-70
2022/10/10 06:13:42;;;;;;;9.13;4.83;;;;;;;5.88;94.96;101577.16;4984266;28;20234;-72
2022/10/10 06:16:07;;;;;;;5.83;3.63;;;;;;;5.88;94.89;101587.31;4983425;28;20208;-73
2022/10/10 06:18:33;;;;;;;9.23;4.70;;;;;;;6.00;94.60;101589.59;4982352;28;20188;-71
2022/10/10 06:21:06;;;;;;;13.73;5.00;;;;;;;5.99;95.04;101572.59;4998078;28;20584;-71
2022/10/10 06:23:32;;;;;;;9.87;3.90;;;;;;;5.97;94.93;101584.34;4986643;28;20661;-72
2022/10/10 06:25:58;;;;;;;9.03;4.03;;;;;;;5.99;94.75;101570.91;4985195;28;20886;-73
2022/10/10 06:28:24;;;;;;;8.53;4.07;;;;;;;6.04;94.69;101577.09;4984057;28;20203;-72
2022/10/10 06:30:50;;;;;;;13.73;4.03;;;;;;;6.08;94.82;101578.16;4986328;28;20290;-72
2022/10/10 06:33:17;;;;;;;7.07;4.17;;;;;;;6.20;94.97;101577.06;4983991;28;20286;-71
2022/10/10 06:35:47;;;;;;;9.07;4.43;;;;;;;6.33;95.66;101581.94;4988018;28;20263;-72
2022/10/10 06:38:14;;;;;;;9.37;4.73;;;;;;;6.42;95.63;101578.97;4984374;28;20845;-71
2022/10/10 06:40:40;;;;;;;6.60;3.67;;;;;;;6.51;95.02;101571.75;4989536;28;20278;-72
2022/10/10 06:43:10;;;;;;;6.50;3.73;;;;;;;6.63;95.50;101570.66;4986621;28;20188;-69
2022/10/10 06:45:42;;;;;;;8.77;4.20;;;;;;;6.79;94.81;101577.31;4989914;28;20201;-72
2022/10/10 06:48:08;;;;;;;10.30;4.20;;;;;;;6.95;94.76;101575.53;4981923;28;20200;-71
2022/10/10 06:50:34;;;;;;;7.47;4.07;;;;;;;7.07;94.74;101575.22;4991421;28;20204;-71
2022/10/10 06:52:59;;;;;;;7.77;3.80;;;;;;;7.19;93.62;101583.44;4988437;28;20833;-72
2022/10/10 06:55:25;;;;;;;6.47;3.90;;;;;;;7.36;92.71;101572.28;4989886;28;20192;-73
2022/10/10 06:57:50;;;;;;;12.50;4.43;;;;;;;7.48;92.76;101568.63;4990931;28;20279;-72
2022/10/10 07:00:16;;;;;;;10.03;4.73;;;;;;;7.60;92.05;101566.56;4986493;28;20592;-70
2022/10/10 07:02:42;;;;;;;11.90;4.73;;;;;;;7.83;91.83;101562.47;4982029;28;20203;-71
2022/10/10 07:05:12;;;;;;;9.53;4.33;;;;;;;8.02;90.26;101562.41;4987818;28;20206;-72
2022/10/10 07:07:38;;;;;;;8.93;4.63;;;;;;;8.30;90.53;101565.28;4987463;28;20599;-72
2022/10/10 07:10:06;;;;;;;7.57;3.90;;;;;;;8.51;89.51;101563.56;4987270;28;20574;-71
2022/10/10 07:12:31;;;;;;;6.73;3.90;;;;;;;8.63;88.32;101557.28;4981951;28;20211;-72
2022/10/10 07:14:56;;;;;;;9.50;4.23;;;;;;;8.81;87.24;101554.53;4987365;28;20194;-72
2022/10/10 07:17:22;;;;;;;5.57;4.20;;;;;;;9.02;87.18;101556.22;4985998;28;20728;-73
2022/10/10 07:19:47;;;;;;;8.53;4.27;;;;;;;9.12;85.29;101554.88;4995876;28;20243;-71
2022/10/10 07:22:13;;;;;;;7.87;4.60;;;;;;;9.13;85.56;101556.59;4981114;28;20234;-72
2022/10/10 07:24:38;;;;;;;10.33;4.37;;;;;;;9.18;84.06;101552.53;4987642;28;20194;-72
2022/10/10 07:27:04;;;;;;;7.50;4.20;;;;;;;9.43;83.89;101560.25;4984119;28;20326;-72
2022/10/10 07:29:29;;;;;;;7.23;4.23;;;;;;;9.57;83.67;101557.38;4988928;28;20219;-72
2022/10/10 07:31:55;;;;;;;11.60;4.50;;;;;;;9.75;82.81;101552.00;4982209;28;20220;-72
2022/10/10 07:34:21;;;;;;;5.40;3.83;;;;;;;9.79;81.88;101558.97;4986023;28;20196;-73
2022/10/10 07:36:49;;;;;;;6.77;4.20;;;;;;;10.00;81.21;101562.25;4985388;28;20192;-72
2022/10/10 07:39:19;;;;;;;6.67;4.37;;;;;;;10.22;81.01;101554.47;4988187;28;20215;-72
2022/10/10 07:41:44;;;;;;;8.53;3.70;;;;;;;10.44;80.68;101552.66;4987180;28;20215;-69
2022/10/10 07:44:09;;;;;;;6.53;4.10;;;;;;;10.76;79.81;101557.06;4988356;28;20202;-72
2022/10/10 07:46:35;;;;;;;6.27;3.70;;;;;;;10.95;77.96;101546.53;4991120;28;20195;-69
2022/10/10 07:49:00;;;;;;;6.13;3.57;;;;;;;10.67;78.63;101543.09;4987044;28;20875;-70
2022/10/10 07:51:26;;;;;;;6.87;4.00;;;;;;;10.76;78.30;101541.69;4991838;28;20238;-72
2022/10/10 07:53:52;;;;;;;7.03;4.30;;;;;;;11.15;77.91;101545.38;4988843;28;20231;-72
2022/10/10 07:56:17;;;;;;;6.90;3.90;;;;;;;11.29;77.30;101538.94;4987492;28;20200;-73
2022/10/10 07:58:43;;;;;;;6.23;3.47;;;;;;;11.45;76.79;101536.00;4985007;28;20188;-72
2022/10/10 08:01:10;;;;;;;8.87;3.93;;;;;;;11.33;76.03;101538.22;4995744;28;20719;-71
2022/10/10 08:03:36;;;;;;;8.00;3.87;;;;;;;11.79;75.88;101530.94;4987490;28;20258;-71
2022/10/10 08:06:05;;;;;;;8.17;3.67;;;;;;;11.97;74.97;101533.97;5004952;28;20192;-71
2022/10/10 08:08:31;;;;;;;7.90;3.50;;;;;;;12.40;74.79;101534.13;4990046;28;20586;-72
2022/10/10 08:10:57;;;;;;;7.30;4.00;;;;;;;12.63;73.73;101526.97;4983316;28;20231;-72
2022/10/10 08:13:23;;;;;;;6.60;3.63;;;;;;;12.85;72.13;101518.84;4982093;28;21892;-71
2022/10/10 08:15:52;;;;;;;5.87;3.93;;;;;;;13.15;71.95;101526.34;5005185;28;20183;-72
2022/10/10 08:18:18;;;;;;;7.00;3.93;;;;;;;13.08;69.97;101512.50;4987625;28;20187;-72
2022/10/10 08:20:43;;;;;;;6.63;3.60;;;;;;;13.29;70.16;101510.38;4982447;28;20235;-72
2022/10/10 08:23:09;;;;;;;8.67;4.17;;;;;;;13.00;70.10;101515.78;4991302;28;20188;-72
2022/10/10 08:25:34;;;;;;;8.43;3.83;;;;;;;13.29;69.78;101505.22;4989258;28;20595;-72
2022/10/10 08:28:00;;;;;;;5.27;3.67;;;;;;;13.58;68.73;101508.34;4990801;28;20196;-72
2022/10/10 08:30:25;;;;;;;6.50;3.97;;;;;;;13.90;67.60;101509.75;4987870;28;20194;-71
2022/10/10 08:32:50;;;;;;;5.87;3.77;;;;;;;13.66;67.32;101502.47;4989890;28;20203;-71
2022/10/10 08:35:16;;;;;;;6.80;3.60;;;;;;;13.79;66.20;101501.84;4985015;28;20199;-73
2022/10/10 08:37:41;;;;;;;8.17;4.03;;;;;;;14.42;65.66;101494.28;5000069;28;20196;-72
2022/10/10 08:40:09;;;;;;;4.27;3.10;;;;;;;14.64;63.60;101497.19;4987313;28;20227;-72
2022/10/10 08:42:44;;;;;;;5.00;3.33;;;;;;;14.55;64.19;101485.91;4987458;28;20222;-73
2022/10/10 08:45:13;;;;;;;6.80;3.57;;;;;;;14.87;63.43;101487.19;4983349;28;20745;-73
2022/10/10 08:47:58;;;;;;;6.05;2.85;;;;;;;15.08;61.37;101488.28;4983035;28;20196;-73
2022/10/10 08:50:31;;;;;;;4.65;2.58;;;;;;;15.74;60.54;101482.97;4989187;28;20226;-73
2022/10/10 08:53:17;;;;;;;5.97;3.17;;;;;;;16.04;59.03;101483.22;4986156;28;20262;-73
2022/10/10 08:55:44;;;;;;;5.00;3.05;;;;;;;17.24;56.24;101464.03;4987741;28;20683;-73
2022/10/10 08:58:12;;;;;;;5.32;2.72;;;;;;;19.63;48.41;101460.91;4988401;28;20203;-72
2022/10/10 09:00:43;;;;;;;5.45;2.97;;;;;;;20.92;45.48;101449.19;4984286;28;20297;-73
2022/10/10 09:03:20;;;;;;;4.88;2.38;;;;;;;23.11;41.49;101444.47;4988001;28;20187;-72
2022/10/10 09:05:52;;;;;;;5.18;2.92;;;;;;;23.38;40.09;101446.50;4988233;28;20195;-73
2022/10/10 09:08:44;;;;;;;4.30;2.75;;;;;;;24.42;37.99;101439.44;5004644;28;20184;-71
2022/10/10 09:11:21;;;;;;;3.83;3.00;;;;;;;24.50;37.24;101434.88;4982677;28;20589;-70
2022/10/10 09:14:02;;;;;;;6.32;3.05;;;;;;;23.82;38.23;101436.69;4981774;28;20192;-71
2022/10/10 09:17:03;;;;;;;3.80;2.63;;;;;;;25.52;35.46;101431.78;4983275;28;20278;-70
2022/10/10 09:19:41;;;;;;;4.40;2.78;;;;;;;25.36;35.46;101431.41;4983979;28;20317;-71
2022/10/10 09:22:17;;;;;;;3.25;2.13;;;;;;;26.27;34.55;101422.19;4983345;28;20254;-71
2022/10/10 09:24:54;;;;;;;2.97;2.47;;;;;;;27.33;33.20;101422.53;4988066;28;20191;-70
2022/10/10 09:27:25;;;;;;;4.03;2.38;;;;;;;27.38;32.17;101420.56;4983034;28;20234;-72
2022/10/10 09:29:56;;;;;;;5.63;2.45;;;;;;;25.80;34.18;101422.09;4984740;28;20187;-70
2022/10/10 09:32:25;;;;;;;4.35;2.35;;;;;;;27.98;31.62;101415.41;4982977;28;20314;-71
2022/10/10 09:35:01;;;;;;;3.13;2.50;;;;;;;28.97;30.77;101408.22;4988315;28;20199;-71
2022/10/10 09:37:36;;;;;;;4.13;2.15;;;;;;;29.45;29.63;101410.31;5000485;28;20206;-71
2022/10/10 09:40:22;;;;;;;5.32;2.20;;;;;;;30.77;28.61;101395.47;4988718;28;20207;-72
2022/10/10 09:42:49;;;;;;;4.13;2.25;;;;;;;30.87;27.46;101395.81;4985395;28;20196;-72
2022/10/10 09:45:17;;;;;;;4.45;2.22;;;;;;;31.38;27.22;101390.25;4981514;28;20190;-72
2022/10/10 09:47:42;;;;;;;3.05;2.17;;;;;;;29.68;28.69;101400.38;4986962;28;20192;-71
2022/10/10 09:50:15;;;;;;;4.72;2.53;;;;;;;29.40;29.29;101397.38;4986517;28;20286;-71
2022/10/10 09:52:42;;;;;;;3.70;2.47;;;;;;;30.13;28.35;101391.91;4986405;28;20192;-71
2022/10/10 09:55:34;;;;;;;3.15;2.25;;;;;;;30.75;27.39;101388.56;4984794;28;20226;-70
2022/10/10 09:58:23;;;;;;;3.25;2.15;;;;;;;30.95;27.75;101383.88;4984658;28;20737;-70
2022/10/10 10:00:49;;;;;;;6.00;2.55;;;;;;;32.02;25.57;101372.25;4981125;28;20262;-71
2022/10/10 10:03:20;;;;;;;2.42;2.20;;;;;;;32.32;26.27;101371.25;4981725;28;20641;-70
2022/10/10 10:06:00;;;;;;;4.63;2.60;;;;;;;33.15;24.98;101364.09;4979684;28;20910;-71
2022/10/10 10:08:26;;;;;;;4.45;2.20;;;;;;;33.02;25.25;101365.03;4978892;28;20681;-71
2022/10/10 10:10:51;;;;;;;2.83;2.22;;;;;;;32.13;26.12;101369.84;4983578;28;20228;-71
2022/10/10 10:13:23;;;;;;;4.57;2.35;;;;;;;31.98;26.41;101368.09;4984884;28;20274;-70
2022/10/10 10:15:55;;;;;;;3.85;2.03;;;;;;;33.60;24.53;101373.53;4984484;28;20278;-70
2022/10/10 10:18:27;;;;;;;5.22;2.22;;;;;;;33.18;24.97;101371.88;4985328;28;20203;-71
2022/10/10 10:21:22;;;;;;;4.20;2.35;;;;;;;32.89;24.33;101364.97;4979932;28;20713;-69
2022/10/10 10:23:59;;;;;;;3.60;2.00;;;;;;;32.15;25.58;101365.28;4983950;28;20277;-70
2022/10/10 10:26:40;;;;;;;3.58;2.10;;;;;;;32.33;25.40;101361.53;4985645;28;20184;-71
2022/10/10 10:29:26;;;;;;;3.78;2.20;;;;;;;32.32;25.65;101355.34;4983745;28;20723;-70
2022/10/10 10:31:59;;;;;;;3.85;2.10;;;;;;;33.50;24.08;101357.34;4979395;28;20274;-70
2022/10/10 10:34:52;;;;;;;3.40;2.25;;;;;;;32.99;24.40;101359.91;4986817;28;20191;-71
2022/10/10 10:37:23;;;;;;;2.25;2.00;;;;;;;33.07;25.14;101365.56;4991555;28;20669;-71
2022/10/10 10:40:12;;;;;;;5.63;2.60;;;;;;;33.31;24.38;101361.31;4985364;28;20200;-71
2022/10/10 10:43:04;;;;;;;4.75;2.20;;;;;;;34.75;23.11;101357.34;4987759;28;20215;-71
2022/10/10 10:45:58;;;;;;;3.30;2.30;;;;;;;34.29;23.26;101358.06;4991873;28;20195;-71
2022/10/10 10:48:28;;;;;;;3.35;1.95;;;;;;;34.21;23.27;101366.56;4988112;28;20207;-69
2022/10/10 10:51:14;;;;;;;3.08;2.17;;;;;;;34.61;23.18;101365.47;4989564;28;20739;-71
2022/10/10 10:54:08;;;;;;;4.07;2.15;;;;;;;34.01;23.75;101359.13;4987130;28;20203;-69
2022/10/10 10:56:46;;;;;;;2.50;1.85;;;;;;;33.23;24.55;101360.94;4991936;28;20188;-71
2022/10/10 10:59:27;;;;;;;4.07;2.17;;;;;;;34.79;23.34;101353.53;4982273;28;20468;-68
2022/10/10 11:02:06;;;;;;;3.50;2.17;;;;;;;34.30;23.50;101365.13;4966268;28;20281;-71
2022/10/10 11:04:52;;;;;;;5.60;2.58;;;;;;;34.79;23.34;101363.31;4988837;28;20272;-69
2022/10/10 11:07:23;;;;;;;2.88;2.00;;;;;;;35.36;22.21;101351.88;4987567;28;20188;-70
2022/10/10 11:09:58;;;;;;;3.33;1.70;;;;;;;35.16;22.43;101352.50;4987590;28;20203;-71
2022/10/10 11:12:48;;;;;;;3.17;2.15;;;;;;;35.88;22.04;101346.97;4989076;28;20218;-71
2022/10/10 11:15:20;;;;;;;4.18;2.25;;;;;;;34.93;22.61;101355.16;4990105;28;20258;-70
2022/10/10 11:17:54;;;;;;;5.03;2.70;;;;;;;35.20;22.36;101345.13;4986882;28;20242;-70
2022/10/10 11:20:37;;;;;;;11.98;2.53;;;;;;;34.26;23.32;101348.44;4994918;28;20262;-71
2022/10/10 11:23:11;;;;;;;4.68;1.95;;;;;;;35.23;22.72;101342.25;4990274;28;20610;-71
2022/10/10 11:25:51;;;;;;;5.00;2.20;;;;;;;32.59;25.32;101344.81;4989386;28;20193;-71
2022/10/10 11:28:32;;;;;;;2.88;2.50;;;;;;;31.38;26.40;101351.38;4984004;28;20656;-70
2022/10/10 11:31:20;;;;;;;3.78;2.28;;;;;;;32.29;25.45;101337.00;4983084;28;20298;-71
2022/10/10 11:33:51;;;;;;;2.90;1.80;;;;;;;33.19;24.76;101338.22;4990414;28;20198;-70
2022/10/10 11:36:21;;;;;;;5.78;2.15;;;;;;;35.81;22.54;101328.88;4973999;28;20192;-70
2022/10/10 11:39:08;;;;;;;3.63;2.20;;;;;;;35.39;22.28;101330.34;4990248;28;20200;-71
2022/10/10 11:41:41;;;;;;;3.63;2.20;;;;;;;35.26;22.99;101332.22;4987532;28;20701;-71
2022/10/10 11:44:23;;;;;;;3.97;2.40;;;;;;;32.38;25.85;101331.13;4990586;28;20242;-71